Orlando, FL

12:02 PM EST on March 03, 2015 (GMT -0500)
Orlando Sanford | Change Station
CLOSE
Current Station
Airport
Location: Sanford,
Elevation: 56 ft
Nearby Weather Stations

Elev 56 ft 28.78 °N, 81.24 °W | Updated 9 minutes ago

Mostly Cloudy
Mostly Cloudy
79 °F
Feels Like 79 °F
N
8
Wind Variable Wind from SSE

Today
High -- | Low -- °F
--% Chance of Precip.
Yesterday
High -- | Low -- °F
Precip. -- in
6:48 AM 6:26 PM
Waxing Gibbous, 96% visible
Pressure 30.23 in
Visibility 10.0 miles
Clouds Few 3000 ft
Few 3700 ft
Dew Point 64 °F
Humidity 60%
Rainfall 0.00 in
Snow Depth Not available.
UV 9 out of 12
Pollen 11.10 out of 12
Air Quality Not available.
Flu Activity Not available.
METAR KSFB 031653Z 15007KT 10SM FEW030 FEW037 26/18 A3023 RMK AO2 SLP236 T02610178

More Conditions Fewer Conditions

Pressure 30.23 in
Visibility 10.0 miles
Clouds Few 3000 ft
Few 3700 ft
Dew Point 64 °F
Humidity 60%
Rainfall 0.00 in
Snow Depth Not available.
UV 9 out of 12
Pollen 11.10 out of 12
Air Quality Not available.
Flu Activity Not available.
METAR KSFB 031653Z 15007KT 10SM FEW030 FEW037 26/18 A3023 RMK AO2 SLP236 T02610178

More Conditions Fewer Conditions

Nowcast | as of 11:04 am EST on March 3, 2015

It will be partly cloudy and warm this afternoon...with high temperatures reaching the lower 80s inland and upper 70s to near 80 closer to the East Coast. A few coastal showers will move west over the Atlantic...but gradually weaken as they approach the coast. A few light showers or sprinkles may move onshore the Treasure Coast before dissipating...especially between Fort Pierce and Stuart. Additional details...including graphics are available online at: http://www.Srh.NOAA.Gov/mlb/blog.Php

×

10-Day Weather Forecast

Almanac

Astronomy

Mar. 03, 2015 Rise Set
Actual Time
Civil Twilight
Nautical Twilight
Astronomical Twilight
Moon
Length of Visible Light
Length of Day
Tomorrow will be .
, % of the Moon is Illuminated

Today's Extremes

State Highs State Lows

Community

WunderPhotos

Upload Photos

1,802,172 photos uploaded!

WunderBlogs® & News

Nearby

Air Quality

  Air Quality AQ Index Pollutant
Not available.

Snow Depth

Station Depth Elevation

Earthquake Activity

City Distance Mag. Time & Date
Minimum magnitude displayed is 2.5.

Coastal Water Temperatures

Place Temperature

Nearby Weather Stations